sensor_id;sensor_type;location;lat;lon;timestamp;P1;durP1;ratioP1;P2;durP2;ratioP2
11334;SDS011;5722;42.620;23.374;2023-02-01T00:00:09;5.30;;;3.60;;
11334;SDS011;5722;42.620;23.374;2023-02-01T00:02:37;4.80;;;3.37;;
11334;SDS011;5722;42.620;23.374;2023-02-01T00:08:10;5.60;;;4.50;;
11334;SDS011;5722;42.620;23.374;2023-02-01T00:10:39;5.37;;;3.90;;
11334;SDS011;5722;42.620;23.374;2023-02-01T00:16:06;4.70;;;3.70;;
11334;SDS011;5722;42.620;23.374;2023-02-01T00:18:40;5.73;;;3.50;;
11334;SDS011;5722;42.620;23.374;2023-02-01T00:21:09;5.10;;;3.50;;
11334;SDS011;5722;42.620;23.374;2023-02-01T00:23:41;5.63;;;3.60;;
11334;SDS011;5722;42.620;23.374;2023-02-01T00:26:12;3.90;;;3.50;;
11334;SDS011;5722;42.620;23.374;2023-02-01T00:34:42;6.00;;;3.77;;
11334;SDS011;5722;42.620;23.374;2023-02-01T00:37:09;4.50;;;3.60;;
11334;SDS011;5722;42.620;23.374;2023-02-01T00:39:55;5.27;;;3.80;;
11334;SDS011;5722;42.620;23.374;2023-02-01T00:42:25;3.53;;;3.23;;
11334;SDS011;5722;42.620;23.374;2023-02-01T00:45:08;4.77;;;3.50;;
11334;SDS011;5722;42.620;23.374;2023-02-01T00:47:38;4.27;;;3.20;;
11334;SDS011;5722;42.620;23.374;2023-02-01T00:50:17;4.63;;;3.50;;
11334;SDS011;5722;42.620;23.374;2023-02-01T00:52:58;5.00;;;3.27;;
11334;SDS011;5722;42.620;23.374;2023-02-01T00:55:30;5.20;;;3.00;;
11334;SDS011;5722;42.620;23.374;2023-02-01T00:57:59;4.40;;;3.43;;
11334;SDS011;5722;42.620;23.374;2023-02-01T01:00:31;5.70;;;3.07;;
11334;SDS011;5722;42.620;23.374;2023-02-01T01:03:10;3.87;;;2.63;;
11334;SDS011;5722;42.620;23.374;2023-02-01T01:05:49;3.77;;;2.90;;
11334;SDS011;5722;42.620;23.374;2023-02-01T01:08:21;3.63;;;3.07;;
11334;SDS011;5722;42.620;23.374;2023-02-01T01:10:49;6.17;;;3.00;;
11334;SDS011;5722;42.620;23.374;2023-02-01T01:13:18;3.40;;;3.07;;
11334;SDS011;5722;42.620;23.374;2023-02-01T01:16:02;4.77;;;3.17;;
11334;SDS011;5722;42.620;23.374;2023-02-01T01:18:39;5.67;;;3.10;;
11334;SDS011;5722;42.620;23.374;2023-02-01T01:21:26;3.57;;;2.90;;
11334;SDS011;5722;42.620;23.374;2023-02-01T01:23:57;2.40;;;2.20;;
11334;SDS011;5722;42.620;23.374;2023-02-01T01:26:27;4.17;;;3.00;;
11334;SDS011;5722;42.620;23.374;2023-02-01T01:28:57;3.07;;;2.77;;
11334;SDS011;5722;42.620;23.374;2023-02-01T01:31:28;3.77;;;2.60;;
11334;SDS011;5722;42.620;23.374;2023-02-01T01:33:57;4.03;;;2.60;;
11334;SDS011;5722;42.620;23.374;2023-02-01T01:36:29;3.77;;;2.63;;
11334;SDS011;5722;42.620;23.374;2023-02-01T01:38:59;3.20;;;2.73;;
11334;SDS011;5722;42.620;23.374;2023-02-01T01:41:28;3.20;;;2.40;;
11334;SDS011;5722;42.620;23.374;2023-02-01T01:47:05;5.67;;;2.83;;
11334;SDS011;5722;42.620;23.374;2023-02-01T01:49:36;4.20;;;2.47;;
11334;SDS011;5722;42.620;23.374;2023-02-01T01:52:08;4.43;;;2.23;;
11334;SDS011;5722;42.620;23.374;2023-02-01T01:54:40;3.13;;;2.47;;
11334;SDS011;5722;42.620;23.374;2023-02-01T01:57:13;3.53;;;2.50;;
11334;SDS011;5722;42.620;23.374;2023-02-01T01:59:46;3.97;;;2.47;;
11334;SDS011;5722;42.620;23.374;2023-02-01T02:02:18;3.33;;;2.37;;
11334;SDS011;5722;42.620;23.374;2023-02-01T02:04:47;3.53;;;2.60;;
11334;SDS011;5722;42.620;23.374;2023-02-01T02:07:19;2.60;;;2.40;;
11334;SDS011;5722;42.620;23.374;2023-02-01T02:09:51;3.03;;;2.70;;
11334;SDS011;5722;42.620;23.374;2023-02-01T02:12:20;2.47;;;2.03;;
11334;SDS011;5722;42.620;23.374;2023-02-01T02:14:50;4.73;;;2.60;;
11334;SDS011;5722;42.620;23.374;2023-02-01T02:17:23;5.53;;;2.50;;
11334;SDS011;5722;42.620;23.374;2023-02-01T02:20:13;2.77;;;2.47;;
11334;SDS011;5722;42.620;23.374;2023-02-01T02:22:54;3.50;;;2.63;;
11334;SDS011;5722;42.620;23.374;2023-02-01T02:28:28;2.43;;;2.23;;
11334;SDS011;5722;42.620;23.374;2023-02-01T02:33:55;3.97;;;2.60;;
11334;SDS011;5722;42.620;23.374;2023-02-01T02:36:35;2.57;;;2.10;;
11334;SDS011;5722;42.620;23.374;2023-02-01T02:39:10;2.97;;;2.50;;
11334;SDS011;5722;42.620;23.374;2023-02-01T02:41:52;3.67;;;2.50;;
11334;SDS011;5722;42.620;23.374;2023-02-01T02:44:44;3.27;;;2.20;;
11334;SDS011;5722;42.620;23.374;2023-02-01T02:47:32;3.20;;;2.20;;
11334;SDS011;5722;42.620;23.374;2023-02-01T02:50:11;3.50;;;2.10;;
11334;SDS011;5722;42.620;23.374;2023-02-01T02:52:59;2.67;;;2.07;;
11334;SDS011;5722;42.620;23.374;2023-02-01T02:55:44;2.70;;;1.97;;
11334;SDS011;5722;42.620;23.374;2023-02-01T02:58:29;3.43;;;2.13;;
11334;SDS011;5722;42.620;23.374;2023-02-01T03:01:13;3.87;;;2.60;;
11334;SDS011;5722;42.620;23.374;2023-02-01T03:03:57;5.10;;;2.23;;
11334;SDS011;5722;42.620;23.374;2023-02-01T03:06:45;2.37;;;1.80;;
11334;SDS011;5722;42.620;23.374;2023-02-01T03:09:21;3.43;;;1.80;;
11334;SDS011;5722;42.620;23.374;2023-02-01T03:11:49;3.50;;;1.73;;
11334;SDS011;5722;42.620;23.374;2023-02-01T03:14:38;1.80;;;1.57;;
11334;SDS011;5722;42.620;23.374;2023-02-01T03:17:12;1.77;;;1.63;;
11334;SDS011;5722;42.620;23.374;2023-02-01T03:19:43;2.87;;;1.90;;
11334;SDS011;5722;42.620;23.374;2023-02-01T03:22:18;4.20;;;2.00;;
11334;SDS011;5722;42.620;23.374;2023-02-01T03:25:01;6.17;;;2.10;;
11334;SDS011;5722;42.620;23.374;2023-02-01T03:27:45;2.77;;;1.80;;
11334;SDS011;5722;42.620;23.374;2023-02-01T03:30:19;2.80;;;2.03;;
11334;SDS011;5722;42.620;23.374;2023-02-01T03:32:55;2.20;;;1.83;;
11334;SDS011;5722;42.620;23.374;2023-02-01T03:35:39;2.10;;;1.90;;
11334;SDS011;5722;42.620;23.374;2023-02-01T03:38:13;2.33;;;1.80;;
11334;SDS011;5722;42.620;23.374;2023-02-01T03:40:49;9.07;;;1.93;;
11334;SDS011;5722;42.620;23.374;2023-02-01T03:43:21;3.30;;;1.83;;
11334;SDS011;5722;42.620;23.374;2023-02-01T03:46:02;3.00;;;1.80;;
11334;SDS011;5722;42.620;23.374;2023-02-01T03:48:38;4.30;;;1.80;;
11334;SDS011;5722;42.620;23.374;2023-02-01T03:51:08;3.20;;;1.67;;
11334;SDS011;5722;42.620;23.374;2023-02-01T03:53:43;3.97;;;1.60;;
11334;SDS011;5722;42.620;23.374;2023-02-01T03:56:18;2.27;;;1.70;;
11334;SDS011;5722;42.620;23.374;2023-02-01T03:59:02;3.70;;;1.70;;
11334;SDS011;5722;42.620;23.374;2023-02-01T04:01:49;2.33;;;2.03;;
11334;SDS011;5722;42.620;23.374;2023-02-01T04:04:27;3.30;;;2.00;;
11334;SDS011;5722;42.620;23.374;2023-02-01T04:06:54;2.63;;;1.97;;
11334;SDS011;5722;42.620;23.374;2023-02-01T04:09:27;2.20;;;1.90;;
11334;SDS011;5722;42.620;23.374;2023-02-01T04:11:57;3.13;;;1.77;;
11334;SDS011;5722;42.620;23.374;2023-02-01T04:14:30;2.13;;;1.93;;
11334;SDS011;5722;42.620;23.374;2023-02-01T04:17:01;2.43;;;1.87;;
11334;SDS011;5722;42.620;23.374;2023-02-01T04:19:33;3.53;;;1.67;;
11334;SDS011;5722;42.620;23.374;2023-02-01T04:22:06;4.07;;;2.30;;
11334;SDS011;5722;42.620;23.374;2023-02-01T04:24:37;2.33;;;2.07;;
11334;SDS011;5722;42.620;23.374;2023-02-01T04:27:12;2.27;;;1.90;;
11334;SDS011;5722;42.620;23.374;2023-02-01T04:29:51;3.27;;;2.53;;
11334;SDS011;5722;42.620;23.374;2023-02-01T04:32:20;3.00;;;2.27;;
11334;SDS011;5722;42.620;23.374;2023-02-01T04:34:47;2.93;;;2.37;;
11334;SDS011;5722;42.620;23.374;2023-02-01T04:37:17;5.93;;;2.70;;
11334;SDS011;5722;42.620;23.374;2023-02-01T04:39:51;4.77;;;2.30;;
11334;SDS011;5722;42.620;23.374;2023-02-01T04:42:23;3.60;;;2.27;;
11334;SDS011;5722;42.620;23.374;2023-02-01T04:44:52;3.63;;;2.50;;
11334;SDS011;5722;42.620;23.374;2023-02-01T04:47:22;2.90;;;2.47;;
11334;SDS011;5722;42.620;23.374;2023-02-01T04:49:50;3.40;;;2.57;;
11334;SDS011;5722;42.620;23.374;2023-02-01T04:52:32;5.53;;;2.83;;
11334;SDS011;5722;42.620;23.374;2023-02-01T04:55:01;4.57;;;2.80;;
11334;SDS011;5722;42.620;23.374;2023-02-01T04:57:34;3.47;;;2.97;;
11334;SDS011;5722;42.620;23.374;2023-02-01T05:00:16;5.83;;;2.50;;
11334;SDS011;5722;42.620;23.374;2023-02-01T05:03:02;5.53;;;2.93;;
11334;SDS011;5722;42.620;23.374;2023-02-01T05:05:36;4.50;;;2.93;;
11334;SDS011;5722;42.620;23.374;2023-02-01T05:08:12;4.93;;;2.80;;
11334;SDS011;5722;42.620;23.374;2023-02-01T05:14:03;4.03;;;3.10;;
11334;SDS011;5722;42.620;23.374;2023-02-01T05:16:29;4.83;;;3.30;;
11334;SDS011;5722;42.620;23.374;2023-02-01T05:19:10;5.37;;;3.07;;
11334;SDS011;5722;42.620;23.374;2023-02-01T05:21:51;5.37;;;3.23;;
11334;SDS011;5722;42.620;23.374;2023-02-01T05:24:27;4.23;;;2.77;;
11334;SDS011;5722;42.620;23.374;2023-02-01T05:38:30;3.80;;;2.90;;
11334;SDS011;5722;42.620;23.374;2023-02-01T05:41:03;5.30;;;3.20;;
11334;SDS011;5722;42.620;23.374;2023-02-01T05:43:51;5.33;;;3.33;;
11334;SDS011;5722;42.620;23.374;2023-02-01T05:46:20;5.70;;;3.40;;
11334;SDS011;5722;42.620;23.374;2023-02-01T05:49:00;5.57;;;3.37;;
11334;SDS011;5722;42.620;23.374;2023-02-01T05:51:33;5.47;;;3.27;;
11334;SDS011;5722;42.620;23.374;2023-02-01T05:56:58;4.20;;;2.60;;
11334;SDS011;5722;42.620;23.374;2023-02-01T05:59:30;6.00;;;2.70;;
11334;SDS011;5722;42.620;23.374;2023-02-01T06:02:27;3.73;;;2.57;;
11334;SDS011;5722;42.620;23.374;2023-02-01T06:05:18;8.33;;;2.20;;
11334;SDS011;5722;42.620;23.374;2023-02-01T06:08:09;5.63;;;2.50;;
11334;SDS011;5722;42.620;23.374;2023-02-01T06:11:04;5.90;;;2.40;;
11334;SDS011;5722;42.620;23.374;2023-02-01T06:19:43;6.20;;;2.27;;
11334;SDS011;5722;42.620;23.374;2023-02-01T06:22:34;3.67;;;2.60;;
11334;SDS011;5722;42.620;23.374;2023-02-01T06:25:15;4.90;;;2.77;;
11334;SDS011;5722;42.620;23.374;2023-02-01T06:28:03;4.83;;;2.37;;
11334;SDS011;5722;42.620;23.374;2023-02-01T06:33:39;4.83;;;2.53;;
11334;SDS011;5722;42.620;23.374;2023-02-01T06:39:29;6.00;;;2.10;;
11334;SDS011;5722;42.620;23.374;2023-02-01T06:41:58;4.03;;;1.97;;
11334;SDS011;5722;42.620;23.374;2023-02-01T06:44:55;5.83;;;2.30;;
11334;SDS011;5722;42.620;23.374;2023-02-01T06:47:41;4.53;;;1.87;;
11334;SDS011;5722;42.620;23.374;2023-02-01T06:50:21;4.10;;;2.00;;
11334;SDS011;5722;42.620;23.374;2023-02-01T07:39:13;5.70;;;2.10;;
11334;SDS011;5722;42.620;23.374;2023-02-01T07:41:42;2.57;;;1.63;;
11334;SDS011;5722;42.620;23.374;2023-02-01T07:44:10;3.87;;;1.93;;
11334;SDS011;5722;42.620;23.374;2023-02-01T07:46:48;4.07;;;2.23;;
11334;SDS011;5722;42.620;23.374;2023-02-01T07:49:23;3.57;;;2.10;;
11334;SDS011;5722;42.620;23.374;2023-02-01T07:52:09;3.87;;;2.00;;
11334;SDS011;5722;42.620;23.374;2023-02-01T08:06:16;2.20;;;1.80;;
11334;SDS011;5722;42.620;23.374;2023-02-01T08:11:57;2.63;;;1.60;;
11334;SDS011;5722;42.620;23.374;2023-02-01T08:14:30;3.37;;;1.87;;
11334;SDS011;5722;42.620;23.374;2023-02-01T08:17:03;3.13;;;1.83;;
11334;SDS011;5722;42.620;23.374;2023-02-01T08:19:52;5.33;;;2.10;;
11334;SDS011;5722;42.620;23.374;2023-02-01T08:25:23;2.57;;;1.40;;
11334;SDS011;5722;42.620;23.374;2023-02-01T08:28:04;4.47;;;1.77;;
11334;SDS011;5722;42.620;23.374;2023-02-01T08:30:46;3.27;;;1.93;;
11334;SDS011;5722;42.620;23.374;2023-02-01T08:33:36;2.80;;;1.70;;
11334;SDS011;5722;42.620;23.374;2023-02-01T08:36:25;4.90;;;1.90;;
11334;SDS011;5722;42.620;23.374;2023-02-01T08:39:28;3.67;;;1.60;;
11334;SDS011;5722;42.620;23.374;2023-02-01T08:45:32;6.37;;;1.70;;
11334;SDS011;5722;42.620;23.374;2023-02-01T08:48:13;1.90;;;1.70;;
11334;SDS011;5722;42.620;23.374;2023-02-01T08:51:08;3.47;;;2.03;;
11334;SDS011;5722;42.620;23.374;2023-02-01T08:54:01;5.03;;;2.40;;
11334;SDS011;5722;42.620;23.374;2023-02-01T08:57:01;3.13;;;1.67;;
11334;SDS011;5722;42.620;23.374;2023-02-01T08:59:48;4.67;;;1.80;;
11334;SDS011;5722;42.620;23.374;2023-02-01T10:40:34;2.53;;;1.70;;
11334;SDS011;5722;42.620;23.374;2023-02-01T10:43:15;4.77;;;1.70;;
11334;SDS011;5722;42.620;23.374;2023-02-01T10:48:51;2.53;;;1.83;;
11334;SDS011;5722;42.620;23.374;2023-02-01T10:51:38;3.07;;;1.77;;
11334;SDS011;5722;42.620;23.374;2023-02-01T10:54:33;4.27;;;1.77;;
11334;SDS011;5722;42.620;23.374;2023-02-01T11:25:52;1.93;;;1.50;;
11334;SDS011;5722;42.620;23.374;2023-02-01T11:28:21;2.33;;;1.80;;
11334;SDS011;5722;42.620;23.374;2023-02-01T11:30:59;3.03;;;1.50;;
11334;SDS011;5722;42.620;23.374;2023-02-01T11:33:47;2.30;;;1.47;;
11334;SDS011;5722;42.620;23.374;2023-02-01T11:36:23;3.40;;;1.50;;
11334;SDS011;5722;42.620;23.374;2023-02-01T11:50:28;1.70;;;1.30;;
11334;SDS011;5722;42.620;23.374;2023-02-01T11:56:02;1.70;;;1.27;;
11334;SDS011;5722;42.620;23.374;2023-02-01T11:58:57;2.93;;;1.47;;
11334;SDS011;5722;42.620;23.374;2023-02-01T12:10:41;2.13;;;1.40;;
11334;SDS011;5722;42.620;23.374;2023-02-01T12:13:20;1.50;;;1.40;;
11334;SDS011;5722;42.620;23.374;2023-02-01T12:16:06;1.63;;;1.37;;
11334;SDS011;5722;42.620;23.374;2023-02-01T12:18:56;3.20;;;1.47;;
11334;SDS011;5722;42.620;23.374;2023-02-01T12:21:48;1.87;;;1.50;;
11334;SDS011;5722;42.620;23.374;2023-02-01T12:59:42;3.63;;;1.63;;
11334;SDS011;5722;42.620;23.374;2023-02-01T13:02:31;4.30;;;1.70;;
11334;SDS011;5722;42.620;23.374;2023-02-01T13:05:31;2.70;;;1.70;;
11334;SDS011;5722;42.620;23.374;2023-02-01T13:08:42;3.57;;;1.70;;
11334;SDS011;5722;42.620;23.374;2023-02-01T13:11:40;8.50;;;1.50;;
11334;SDS011;5722;42.620;23.374;2023-02-01T13:14:32;1.40;;;1.30;;
11334;SDS011;5722;42.620;23.374;2023-02-01T13:26:24;3.47;;;1.40;;
11334;SDS011;5722;42.620;23.374;2023-02-01T13:29:00;1.70;;;1.57;;
11334;SDS011;5722;42.620;23.374;2023-02-01T13:40:50;4.43;;;1.80;;
11334;SDS011;5722;42.620;23.374;2023-02-01T13:47:09;5.07;;;1.63;;
11334;SDS011;5722;42.620;23.374;2023-02-01T13:49:50;3.30;;;1.70;;
11334;SDS011;5722;42.620;23.374;2023-02-01T13:52:32;2.57;;;1.50;;
11334;SDS011;5722;42.620;23.374;2023-02-01T13:55:33;6.50;;;1.60;;
11334;SDS011;5722;42.620;23.374;2023-02-01T13:58:47;1.63;;;1.43;;
11334;SDS011;5722;42.620;23.374;2023-02-01T18:08:24;4.10;;;3.23;;
11334;SDS011;5722;42.620;23.374;2023-02-01T18:14:31;5.13;;;2.93;;
11334;SDS011;5722;42.620;23.374;2023-02-01T18:21:05;13.17;;;9.50;;
11334;SDS011;5722;42.620;23.374;2023-02-01T20:53:51;13.57;;;7.77;;
11334;SDS011;5722;42.620;23.374;2023-02-01T20:56:30;16.00;;;9.53;;
11334;SDS011;5722;42.620;23.374;2023-02-01T20:59:01;13.47;;;8.73;;
11334;SDS011;5722;42.620;23.374;2023-02-01T21:01:52;14.77;;;7.80;;
11334;SDS011;5722;42.620;23.374;2023-02-01T21:04:33;12.40;;;8.77;;
11334;SDS011;5722;42.620;23.374;2023-02-01T21:07:04;13.33;;;9.53;;
11334;SDS011;5722;42.620;23.374;2023-02-01T21:15:49;13.53;;;9.70;;
11334;SDS011;5722;42.620;23.374;2023-02-01T21:18:31;20.07;;;12.30;;
11334;SDS011;5722;42.620;23.374;2023-02-01T21:21:25;27.83;;;15.43;;
11334;SDS011;5722;42.620;23.374;2023-02-01T21:24:07;20.07;;;11.80;;
11334;SDS011;5722;42.620;23.374;2023-02-01T21:26:45;16.77;;;11.00;;
11334;SDS011;5722;42.620;23.374;2023-02-01T21:38:06;18.57;;;11.10;;
11334;SDS011;5722;42.620;23.374;2023-02-01T21:43:47;44.33;;;22.87;;
11334;SDS011;5722;42.620;23.374;2023-02-01T21:46:39;35.17;;;19.77;;
11334;SDS011;5722;42.620;23.374;2023-02-01T21:49:12;27.40;;;17.17;;
11334;SDS011;5722;42.620;23.374;2023-02-01T21:52:01;29.03;;;15.73;;
11334;SDS011;5722;42.620;23.374;2023-02-01T21:54:53;23.43;;;14.40;;
11334;SDS011;5722;42.620;23.374;2023-02-01T22:00:04;20.43;;;12.87;;
11334;SDS011;5722;42.620;23.374;2023-02-01T22:02:44;34.37;;;21.23;;
11334;SDS011;5722;42.620;23.374;2023-02-01T22:05:24;32.43;;;17.77;;
11334;SDS011;5722;42.620;23.374;2023-02-01T22:07:55;26.13;;;16.13;;
11334;SDS011;5722;42.620;23.374;2023-02-01T22:10:25;22.43;;;13.87;;
11334;SDS011;5722;42.620;23.374;2023-02-01T22:12:52;16.97;;;11.23;;
11334;SDS011;5722;42.620;23.374;2023-02-01T22:15:24;15.63;;;10.10;;
11334;SDS011;5722;42.620;23.374;2023-02-01T22:18:11;16.33;;;10.60;;
11334;SDS011;5722;42.620;23.374;2023-02-01T22:20:43;15.87;;;10.90;;
11334;SDS011;5722;42.620;23.374;2023-02-01T22:23:14;19.13;;;12.60;;
11334;SDS011;5722;42.620;23.374;2023-02-01T22:28:42;25.87;;;15.90;;
11334;SDS011;5722;42.620;23.374;2023-02-01T22:31:10;25.50;;;14.53;;
11334;SDS011;5722;42.620;23.374;2023-02-01T22:33:38;22.13;;;13.23;;
11334;SDS011;5722;42.620;23.374;2023-02-01T22:36:10;26.27;;;15.53;;
11334;SDS011;5722;42.620;23.374;2023-02-01T22:38:44;22.33;;;12.83;;
11334;SDS011;5722;42.620;23.374;2023-02-01T22:41:15;29.10;;;16.20;;
11334;SDS011;5722;42.620;23.374;2023-02-01T22:43:45;30.37;;;15.50;;
11334;SDS011;5722;42.620;23.374;2023-02-01T22:46:14;23.90;;;14.03;;
11334;SDS011;5722;42.620;23.374;2023-02-01T22:48:42;15.97;;;10.30;;
11334;SDS011;5722;42.620;23.374;2023-02-01T22:51:22;6.10;;;4.33;;
11334;SDS011;5722;42.620;23.374;2023-02-01T22:53:55;6.57;;;4.57;;
11334;SDS011;5722;42.620;23.374;2023-02-01T22:56:27;7.67;;;5.40;;
11334;SDS011;5722;42.620;23.374;2023-02-01T22:58:56;7.53;;;5.43;;
11334;SDS011;5722;42.620;23.374;2023-02-01T23:01:26;9.47;;;5.70;;
11334;SDS011;5722;42.620;23.374;2023-02-01T23:03:58;9.93;;;5.80;;
11334;SDS011;5722;42.620;23.374;2023-02-01T23:06:25;7.10;;;4.67;;
11334;SDS011;5722;42.620;23.374;2023-02-01T23:08:56;10.67;;;5.47;;
11334;SDS011;5722;42.620;23.374;2023-02-01T23:11:23;7.33;;;4.80;;
11334;SDS011;5722;42.620;23.374;2023-02-01T23:13:56;6.87;;;4.47;;
11334;SDS011;5722;42.620;23.374;2023-02-01T23:16:23;6.17;;;4.60;;
11334;SDS011;5722;42.620;23.374;2023-02-01T23:18:51;8.83;;;4.80;;
11334;SDS011;5722;42.620;23.374;2023-02-01T23:21:22;6.33;;;4.60;;
11334;SDS011;5722;42.620;23.374;2023-02-01T23:23:51;7.47;;;4.50;;
11334;SDS011;5722;42.620;23.374;2023-02-01T23:26:25;5.60;;;4.17;;
11334;SDS011;5722;42.620;23.374;2023-02-01T23:29:08;6.73;;;4.43;;
11334;SDS011;5722;42.620;23.374;2023-02-01T23:31:35;7.27;;;4.57;;
11334;SDS011;5722;42.620;23.374;2023-02-01T23:34:05;7.33;;;4.80;;
11334;SDS011;5722;42.620;23.374;2023-02-01T23:36:32;8.23;;;4.97;;
11334;SDS011;5722;42.620;23.374;2023-02-01T23:39:00;6.50;;;4.63;;
11334;SDS011;5722;42.620;23.374;2023-02-01T23:41:30;3.17;;;2.40;;
11334;SDS011;5722;42.620;23.374;2023-02-01T23:43:58;2.90;;;2.10;;
11334;SDS011;5722;42.620;23.374;2023-02-01T23:46:33;4.27;;;2.97;;
11334;SDS011;5722;42.620;23.374;2023-02-01T23:49:02;6.10;;;3.90;;
11334;SDS011;5722;42.620;23.374;2023-02-01T23:51:35;6.57;;;4.10;;
11334;SDS011;5722;42.620;23.374;2023-02-01T23:54:05;4.93;;;3.50;;
11334;SDS011;5722;42.620;23.374;2023-02-01T23:56:33;2.80;;;2.40;;
11334;SDS011;5722;42.620;23.374;2023-02-01T23:59:02;4.13;;;2.20;;
